Terminal Aerodrome Forecast
Issued by NWS

Current Version | Previous Version | Graphics & Text | Print | Product List | Glossary On
Versions: 1 2 3 4 5 6 7 8 9 10 11 12 13 14 15 16 17 18 19 20 21 22 23 24 25 26 27 28 29
000
FTUS41 KILN 291900 AAA
TAFLUK
TAF AMD
KLUK 291926Z 2919/3018 24017G28KT P6SM BKN025 OVC050
      TEMPO 2920/2921 5SM BR OVC018
     FM292100 27015G25KT P6SM VCSH OVC015
     FM300200 29012KT P6SM OVC018
     FM300900 30011KT P6SM OVC025
     FM301400 33012KT P6SM SCT035=

USA.gov is the U.S. government's official web portal to all federal, state and local government web resources and services.